createdAt,value
2023-05-09T00:00:52.627Z,0.30
2023-05-09T00:03:19.045Z,0.23
2023-05-09T00:05:46.147Z,0.30
2023-05-09T00:08:12.567Z,0.20
2023-05-09T00:10:38.948Z,0.30
2023-05-09T00:13:06.025Z,0.30
2023-05-09T00:15:32.622Z,0.30
2023-05-09T00:17:59.505Z,0.20
2023-05-09T00:20:26.061Z,0.30
2023-05-09T00:22:52.433Z,0.30
2023-05-09T00:25:18.852Z,0.20
2023-05-09T00:27:45.246Z,0.20
2023-05-09T00:30:11.819Z,0.22
2023-05-09T00:32:40.182Z,0.20
2023-05-09T00:35:07.252Z,0.20
2023-05-09T00:37:33.646Z,0.20
2023-05-09T00:40:00.058Z,0.20
2023-05-09T00:42:26.499Z,0.30
2023-05-09T00:44:52.933Z,0.20
2023-05-09T00:47:20.749Z,0.30
2023-05-09T00:49:47.124Z,0.30
2023-05-09T00:52:13.470Z,0.28
2023-05-09T00:54:39.963Z,0.22
2023-05-09T00:57:06.472Z,0.20
2023-05-09T00:59:33.279Z,0.20
2023-05-09T01:01:59.765Z,0.20
2023-05-09T01:04:26.150Z,0.23
2023-05-09T01:06:56.872Z,0.22
2023-05-09T01:09:35.879Z,0.25
2023-05-09T01:12:06.867Z,0.20
2023-05-09T01:14:42.546Z,0.20
2023-05-09T01:17:13.579Z,0.20
2023-05-09T01:19:53.984Z,0.30
2023-05-09T01:22:25.355Z,0.20
2023-05-09T01:25:00.914Z,0.30
2023-05-09T01:27:32.950Z,0.20
2023-05-09T01:30:00.332Z,0.20
2023-05-09T01:32:28.810Z,0.25
2023-05-09T01:34:56.385Z,0.20
2023-05-09T01:37:24.451Z,0.20
2023-05-09T01:39:53.320Z,0.20
2023-05-09T01:42:20.860Z,0.20
2023-05-09T01:44:47.518Z,0.22
2023-05-09T01:47:16.465Z,0.20
2023-05-09T01:49:42.990Z,0.20
2023-05-09T01:52:11.338Z,0.20
2023-05-09T01:54:38.424Z,0.20
2023-05-09T01:57:06.124Z,0.30
2023-05-09T01:59:34.213Z,0.20
2023-05-09T02:02:01.397Z,0.20
2023-05-09T02:04:28.577Z,0.25
2023-05-09T02:06:55.824Z,0.30
2023-05-09T02:09:22.190Z,0.30
2023-05-09T02:11:48.660Z,0.20
2023-05-09T02:14:15.063Z,0.20
2023-05-09T02:16:41.797Z,0.20
2023-05-09T02:19:08.670Z,0.30
2023-05-09T02:21:35.454Z,0.22
2023-05-09T02:24:01.851Z,0.20
2023-05-09T02:26:28.675Z,0.20
2023-05-09T02:28:55.902Z,0.20
2023-05-09T02:31:23.321Z,0.30
2023-05-09T02:33:50.014Z,0.30
2023-05-09T02:36:16.804Z,0.20
2023-05-09T02:38:43.582Z,0.30
2023-05-09T02:41:14.300Z,0.20
2023-05-09T02:43:40.688Z,0.20
2023-05-09T02:46:07.633Z,0.20
2023-05-09T02:48:35.591Z,0.20
2023-05-09T02:51:02.560Z,0.20
2023-05-09T02:53:29.978Z,0.20
2023-05-09T02:55:56.466Z,0.30
2023-05-09T02:58:22.875Z,0.28
2023-05-09T03:00:49.291Z,0.52
2023-05-09T03:03:17.917Z,0.70
2023-05-09T03:05:44.545Z,0.30
2023-05-09T03:08:10.953Z,0.23
2023-05-09T03:10:37.319Z,0.20
2023-05-09T03:13:04.001Z,0.20
2023-05-09T03:15:30.686Z,0.30
2023-05-09T03:17:57.115Z,0.20
2023-05-09T03:20:23.582Z,0.27
2023-05-09T03:22:49.944Z,0.40
2023-05-09T03:25:16.921Z,0.20
2023-05-09T03:27:43.602Z,0.30
2023-05-09T03:30:10.333Z,0.20
2023-05-09T03:32:36.828Z,0.20
2023-05-09T03:35:03.372Z,0.20
2023-05-09T03:37:29.962Z,0.20
2023-05-09T03:39:56.333Z,0.30
2023-05-09T03:42:22.938Z,0.20
2023-05-09T03:44:49.372Z,0.30
2023-05-09T03:47:15.897Z,0.68
2023-05-09T03:49:42.561Z,0.70
2023-05-09T03:52:09.216Z,0.40
2023-05-09T03:54:36.573Z,0.30
2023-05-09T03:57:03.532Z,0.35
2023-05-09T03:59:29.928Z,0.30
2023-05-09T04:01:56.359Z,0.40
2023-05-09T04:04:22.785Z,0.35
2023-05-09T04:06:49.204Z,0.40
2023-05-09T04:09:15.594Z,0.37
2023-05-09T04:11:42.009Z,0.30
2023-05-09T04:14:08.424Z,1.38
2023-05-09T04:16:34.834Z,0.75
2023-05-09T04:19:01.324Z,0.30
2023-05-09T04:21:27.701Z,0.40
2023-05-09T04:23:54.130Z,0.40
2023-05-09T04:26:22.583Z,0.32
2023-05-09T04:28:48.977Z,0.40
2023-05-09T04:31:15.541Z,0.30
2023-05-09T04:33:41.954Z,0.50
2023-05-09T04:36:08.519Z,0.47
2023-05-09T04:38:34.877Z,0.40
2023-05-09T04:41:01.510Z,0.20
2023-05-09T04:43:28.215Z,0.40
2023-05-09T04:45:54.656Z,0.40
2023-05-09T04:48:21.098Z,0.30
2023-05-09T04:50:48.583Z,0.40
2023-05-09T04:53:15.055Z,0.40
2023-05-09T04:55:41.482Z,0.20
2023-05-09T04:58:09.077Z,0.30
2023-05-09T05:00:35.736Z,0.30
2023-05-09T05:03:02.219Z,0.40
2023-05-09T05:05:28.927Z,0.40
2023-05-09T05:07:55.514Z,0.40
2023-05-09T05:10:21.887Z,0.40
2023-05-09T05:12:48.314Z,0.40
2023-05-09T05:15:15.050Z,0.50
2023-05-09T05:17:42.166Z,0.90
2023-05-09T05:20:10.507Z,0.40
2023-05-09T05:22:36.968Z,1.23
2023-05-09T05:25:04.532Z,1.35
2023-05-09T05:27:31.252Z,1.83
2023-05-09T05:29:57.660Z,2.50
2023-05-09T05:32:24.179Z,2.70
2023-05-09T05:34:50.575Z,3.40
2023-05-09T05:37:16.982Z,1.17
2023-05-09T05:39:43.353Z,6.57
2023-05-09T05:42:09.741Z,3.75
2023-05-09T05:44:36.119Z,4.95
2023-05-09T05:47:02.545Z,4.47
2023-05-09T05:49:28.933Z,4.07
2023-05-09T05:51:55.388Z,2.45
2023-05-09T05:54:21.823Z,5.05
2023-05-09T05:56:48.184Z,5.47
2023-05-09T05:59:14.519Z,6.77
2023-05-09T06:01:41.419Z,5.68
2023-05-09T06:04:08.081Z,2.97
2023-05-09T06:06:34.650Z,1.67
2023-05-09T06:09:01.166Z,1.77
2023-05-09T06:11:27.616Z,4.53
2023-05-09T06:13:54.162Z,5.90
2023-05-09T06:16:21.373Z,4.30
2023-05-09T06:18:48.071Z,2.72
2023-05-09T06:21:14.442Z,3.53
2023-05-09T06:23:57.022Z,2.50
2023-05-09T06:26:27.165Z,0.80
2023-05-09T06:28:53.570Z,1.67
2023-05-09T06:31:20.066Z,2.08
2023-05-09T06:33:46.502Z,3.42
2023-05-09T06:36:12.867Z,2.73
2023-05-09T06:38:39.244Z,0.40
2023-05-09T06:41:05.628Z,0.50
2023-05-09T06:43:32.195Z,1.75
2023-05-09T06:45:58.602Z,1.88
2023-05-09T06:48:25.165Z,1.37
2023-05-09T06:50:51.508Z,0.93
2023-05-09T06:53:17.942Z,0.50
2023-05-09T06:55:44.493Z,0.50
2023-05-09T06:58:12.025Z,1.80
2023-05-09T07:00:38.599Z,2.20
2023-05-09T07:03:07.379Z,1.98
2023-05-09T07:05:34.240Z,1.85
2023-05-09T07:08:00.885Z,1.20
2023-05-09T07:10:27.382Z,1.77
2023-05-09T07:12:53.850Z,1.63
2023-05-09T07:15:32.523Z,0.73
2023-05-09T07:18:06.639Z,0.30
2023-05-09T07:20:33.500Z,0.30
2023-05-09T07:23:00.035Z,1.20
2023-05-09T07:25:26.514Z,0.30
2023-05-09T07:27:52.894Z,0.20
2023-05-09T07:30:19.313Z,0.20
2023-05-09T07:32:45.819Z,0.20
2023-05-09T07:35:12.499Z,0.20
2023-05-09T07:37:39.130Z,0.20
2023-05-09T07:40:06.231Z,0.30
2023-05-09T07:42:33.080Z,0.30
2023-05-09T07:45:00.270Z,0.30
2023-05-09T07:47:26.815Z,0.20
2023-05-09T07:49:53.212Z,0.40
2023-05-09T07:52:19.560Z,0.30
2023-05-09T07:54:45.951Z,0.20
2023-05-09T07:57:12.288Z,0.73
2023-05-09T07:59:38.685Z,0.30
2023-05-09T08:02:05.186Z,0.43
2023-05-09T08:04:31.682Z,1.85
2023-05-09T08:06:59.428Z,1.13
2023-05-09T08:09:26.615Z,1.48
2023-05-09T08:11:53.754Z,1.52
2023-05-09T08:14:20.108Z,2.67
2023-05-09T08:16:46.473Z,0.75
2023-05-09T08:19:16.188Z,0.45
2023-05-09T08:21:42.535Z,1.45
2023-05-09T08:24:09.646Z,0.50
2023-05-09T08:26:35.986Z,0.27
2023-05-09T08:29:02.383Z,1.75
2023-05-09T08:31:28.892Z,1.95
2023-05-09T08:33:55.301Z,0.30
2023-05-09T08:36:21.628Z,0.52
2023-05-09T08:38:48.023Z,0.30
2023-05-09T08:41:14.453Z,0.20
2023-05-09T08:43:41.425Z,0.30
2023-05-09T08:46:09.281Z,0.30
2023-05-09T08:48:37.554Z,0.25
2023-05-09T08:51:05.776Z,0.20
2023-05-09T08:53:32.782Z,0.28
2023-05-09T08:56:00.217Z,0.20
2023-05-09T08:58:26.787Z,0.30
2023-05-09T09:00:53.497Z,0.30
2023-05-09T09:03:20.131Z,0.30
2023-05-09T09:05:47.833Z,0.30
2023-05-09T09:08:14.405Z,0.30
2023-05-09T09:10:46.987Z,0.30
2023-05-09T09:13:14.444Z,0.40
2023-05-09T09:15:42.213Z,0.30
2023-05-09T09:18:10.127Z,0.40
2023-05-09T09:20:41.533Z,0.30
2023-05-09T09:23:10.417Z,0.40
2023-05-09T09:25:37.023Z,0.40
2023-05-09T09:28:05.062Z,0.30
2023-05-09T09:30:31.565Z,0.30
2023-05-09T09:32:59.126Z,0.47
2023-05-09T09:35:25.648Z,0.40
2023-05-09T09:37:57.894Z,0.38
2023-05-09T09:40:26.694Z,0.30
2023-05-09T09:42:53.113Z,0.60
2023-05-09T09:45:20.280Z,0.45
2023-05-09T09:47:47.761Z,0.40
2023-05-09T09:50:15.264Z,0.38
2023-05-09T09:52:42.833Z,0.60
2023-05-09T09:55:09.538Z,0.50
2023-05-09T09:57:38.217Z,0.30
2023-05-09T10:00:06.109Z,0.40
2023-05-09T10:02:32.688Z,0.30
2023-05-09T10:05:07.747Z,0.40
2023-05-09T10:07:35.420Z,0.40
2023-05-09T10:10:05.959Z,0.40
2023-05-09T10:12:34.428Z,0.50
2023-05-09T10:15:02.020Z,0.50
2023-05-09T10:17:31.187Z,0.50
2023-05-09T10:20:01.203Z,0.50
2023-05-09T10:22:29.087Z,0.40
2023-05-09T10:25:05.566Z,0.40
2023-05-09T10:27:33.520Z,0.45
2023-05-09T10:30:10.348Z,0.50
2023-05-09T10:32:41.717Z,0.50
2023-05-09T10:35:08.706Z,0.40
2023-05-09T10:37:35.362Z,0.40
2023-05-09T10:40:03.061Z,0.32
2023-05-09T10:42:30.041Z,0.50
2023-05-09T10:44:56.453Z,0.40
2023-05-09T10:47:23.418Z,0.40
2023-05-09T10:49:49.897Z,0.50
2023-05-09T10:52:16.861Z,0.35
2023-05-09T10:54:43.331Z,0.43
2023-05-09T10:57:10.023Z,0.40
2023-05-09T10:59:38.497Z,0.43
2023-05-09T11:02:05.289Z,0.40
2023-05-09T11:04:32.936Z,0.30
2023-05-09T11:06:59.952Z,0.40
2023-05-09T11:09:28.379Z,0.40
2023-05-09T11:11:57.059Z,0.50
2023-05-09T11:14:32.456Z,0.40
2023-05-09T11:16:59.696Z,0.40
2023-05-09T11:19:36.887Z,0.57
2023-05-09T11:22:11.017Z,0.30
2023-05-09T11:24:37.909Z,0.50
2023-05-09T11:27:13.301Z,0.40
2023-05-09T11:29:43.203Z,0.40
2023-05-09T11:32:13.292Z,0.50
2023-05-09T11:34:41.659Z,0.55
2023-05-09T11:37:10.032Z,0.47
2023-05-09T11:39:54.652Z,0.40
2023-05-09T11:42:21.337Z,0.50
2023-05-09T11:44:48.836Z,0.35
2023-05-09T11:47:15.275Z,0.40
2023-05-09T11:50:00.066Z,0.40
2023-05-09T11:52:26.416Z,0.40
2023-05-09T11:54:53.224Z,0.50
2023-05-09T11:57:19.734Z,0.52
2023-05-09T11:59:46.239Z,0.40
2023-05-09T12:02:13.114Z,0.40
2023-05-09T12:04:39.710Z,0.60
2023-05-09T12:07:06.274Z,0.60
2023-05-09T12:09:33.752Z,0.43
2023-05-09T12:12:01.156Z,0.50
2023-05-09T12:14:29.750Z,0.60
2023-05-09T12:16:56.264Z,0.50
2023-05-09T12:19:23.815Z,0.98
2023-05-09T12:21:54.069Z,1.23
2023-05-09T12:24:21.231Z,0.57
2023-05-09T12:26:48.386Z,0.70
2023-05-09T12:29:14.952Z,0.80
2023-05-09T12:31:41.780Z,0.80
2023-05-09T12:34:08.766Z,0.70
2023-05-09T12:36:37.072Z,1.10
2023-05-09T12:39:09.364Z,1.00
2023-05-09T12:41:53.576Z,0.80
2023-05-09T12:44:26.563Z,0.80
2023-05-09T12:46:53.671Z,0.80
2023-05-09T12:49:21.700Z,0.82
2023-05-09T12:51:49.883Z,1.00
2023-05-09T12:54:23.863Z,0.90
2023-05-09T12:56:52.446Z,0.88
2023-05-09T12:59:20.557Z,0.70
2023-05-09T13:01:51.163Z,1.20
2023-05-09T13:04:19.584Z,0.90
2023-05-09T13:06:48.977Z,1.05
2023-05-09T13:09:15.971Z,0.98
2023-05-09T13:11:42.369Z,1.20
2023-05-09T13:14:09.774Z,1.33
2023-05-09T13:16:36.206Z,1.30
2023-05-09T13:19:02.783Z,1.20
2023-05-09T13:21:29.160Z,1.38
2023-05-09T13:23:55.558Z,1.07
2023-05-09T13:26:22.376Z,1.40
2023-05-09T13:28:48.710Z,1.42
2023-05-09T13:31:15.237Z,1.33
2023-05-09T13:33:41.680Z,1.20
2023-05-09T13:36:08.158Z,1.20
2023-05-09T13:38:38.637Z,1.20
2023-05-09T13:41:05.072Z,1.05
2023-05-09T13:43:31.493Z,1.10
2023-05-09T13:45:57.943Z,1.20
2023-05-09T13:48:24.338Z,1.30
2023-05-09T13:50:50.838Z,1.05
2023-05-09T13:53:17.220Z,1.30
2023-05-09T13:55:44.232Z,0.75
2023-05-09T13:58:10.571Z,0.80
2023-05-09T14:00:36.954Z,1.20
2023-05-09T14:03:03.517Z,1.13
2023-05-09T14:05:31.298Z,1.25
2023-05-09T14:07:57.664Z,1.27
2023-05-09T14:10:42.433Z,1.65
2023-05-09T14:13:27.341Z,1.57
2023-05-09T14:16:12.270Z,1.40
2023-05-09T14:18:57.765Z,1.10
2023-05-09T14:21:43.536Z,1.00
2023-05-09T14:24:10.383Z,0.80
2023-05-09T14:26:36.726Z,1.00
2023-05-09T14:29:03.794Z,1.00
2023-05-09T14:31:30.491Z,0.95
2023-05-09T14:33:57.297Z,0.80
2023-05-09T14:36:23.887Z,1.08
2023-05-09T14:39:08.969Z,1.07
2023-05-09T14:41:53.953Z,1.00
2023-05-09T14:44:20.300Z,0.88
2023-05-09T14:46:46.757Z,0.90
2023-05-09T14:49:13.164Z,1.30
2023-05-09T14:51:39.582Z,0.90
2023-05-09T14:54:06.507Z,1.33
2023-05-09T14:56:33.284Z,1.30
2023-05-09T14:59:00.052Z,1.65
2023-05-09T15:01:26.483Z,1.90
2023-05-09T15:03:52.913Z,1.30
2023-05-09T15:06:19.344Z,1.67
2023-05-09T15:08:45.953Z,1.70
2023-05-09T15:11:12.307Z,1.92
2023-05-09T15:13:38.909Z,1.60
2023-05-09T15:16:05.345Z,1.55
2023-05-09T15:18:33.490Z,1.55
2023-05-09T15:21:00.303Z,1.13
2023-05-09T15:23:26.758Z,1.50
2023-05-09T15:25:53.322Z,1.30
2023-05-09T15:28:19.652Z,1.48
2023-05-09T15:30:46.152Z,1.52
2023-05-09T15:33:13.314Z,1.52
2023-05-09T15:35:40.006Z,2.00
2023-05-09T15:38:07.852Z,1.95
2023-05-09T15:40:34.260Z,1.80
2023-05-09T15:43:07.388Z,1.75
2023-05-09T15:45:34.855Z,2.05
2023-05-09T15:48:01.319Z,1.60
2023-05-09T15:50:27.698Z,1.90
2023-05-09T15:52:54.182Z,2.10
2023-05-09T15:55:20.692Z,1.92
2023-05-09T15:57:48.185Z,1.90
2023-05-09T16:00:16.373Z,1.85
2023-05-09T16:02:44.199Z,1.90
2023-05-09T16:05:11.073Z,1.73
2023-05-09T16:07:37.528Z,1.88
2023-05-09T16:10:04.001Z,2.15
2023-05-09T16:12:32.756Z,2.38
2023-05-09T16:14:59.668Z,2.05
2023-05-09T16:17:26.101Z,2.30
2023-05-09T16:19:52.456Z,2.58
2023-05-09T16:22:19.280Z,1.88
2023-05-09T16:24:46.407Z,2.47
2023-05-09T16:27:14.379Z,1.98
2023-05-09T16:29:41.061Z,2.50
2023-05-09T16:32:08.089Z,2.53
2023-05-09T16:34:35.494Z,2.10
2023-05-09T16:37:02.408Z,2.17
2023-05-09T16:39:28.845Z,2.15
2023-05-09T16:41:55.500Z,2.60
2023-05-09T16:44:22.086Z,2.97
2023-05-09T16:46:48.435Z,2.47
2023-05-09T16:49:15.801Z,1.83
2023-05-09T16:51:42.903Z,2.40
2023-05-09T16:54:09.260Z,2.30
2023-05-09T16:56:35.634Z,1.98
2023-05-09T16:59:02.341Z,2.00
2023-05-09T17:01:29.100Z,0.88
2023-05-09T17:03:55.758Z,2.38
2023-05-09T17:06:22.223Z,2.03
2023-05-09T17:08:48.565Z,2.08
2023-05-09T17:11:16.232Z,2.20
2023-05-09T17:13:44.004Z,2.28
2023-05-09T17:16:10.587Z,1.85
2023-05-09T17:18:38.282Z,1.70
2023-05-09T17:21:05.170Z,1.60
2023-05-09T17:23:31.805Z,1.95
2023-05-09T17:25:58.181Z,1.88
2023-05-09T17:28:24.585Z,1.50
2023-05-09T17:30:51.282Z,1.55
2023-05-09T17:33:17.686Z,1.67
2023-05-09T17:35:44.055Z,0.95
2023-05-09T17:38:10.391Z,1.65
2023-05-09T17:40:38.167Z,1.55
2023-05-09T17:43:04.578Z,1.33
2023-05-09T17:45:30.965Z,1.20
2023-05-09T17:47:57.485Z,1.30
2023-05-09T17:50:23.967Z,1.58
2023-05-09T17:52:50.324Z,1.30
2023-05-09T17:55:16.709Z,1.25
2023-05-09T17:57:43.409Z,1.40
2023-05-09T18:00:10.131Z,1.60
2023-05-09T18:02:36.606Z,1.10
2023-05-09T18:05:03.262Z,1.48
2023-05-09T18:07:29.653Z,1.43
2023-05-09T18:09:56.069Z,1.40
2023-05-09T18:12:22.509Z,1.00
2023-05-09T18:14:49.218Z,1.25
2023-05-09T18:17:15.625Z,0.93
2023-05-09T18:19:42.211Z,1.17
2023-05-09T18:22:08.588Z,0.85
2023-05-09T18:24:35.001Z,0.82
2023-05-09T18:27:03.126Z,1.10
2023-05-09T18:29:29.592Z,0.90
2023-05-09T18:31:56.225Z,1.00
2023-05-09T18:34:22.770Z,0.77
2023-05-09T18:36:50.241Z,0.80
2023-05-09T18:39:16.596Z,0.82
2023-05-09T18:41:43.034Z,0.77
2023-05-09T18:44:09.368Z,0.80
2023-05-09T18:46:35.812Z,0.70
2023-05-09T18:49:04.019Z,0.68
2023-05-09T18:51:31.594Z,0.57
2023-05-09T18:53:58.007Z,0.68
2023-05-09T18:56:25.552Z,0.80
2023-05-09T18:58:51.990Z,1.00
2023-05-09T19:01:19.011Z,0.68
2023-05-09T19:03:46.197Z,0.70
2023-05-09T19:06:13.448Z,0.98
2023-05-09T19:08:40.546Z,0.90
2023-05-09T19:11:07.290Z,0.75
2023-05-09T19:13:37.084Z,1.55
2023-05-09T19:16:04.941Z,1.17
2023-05-09T19:18:31.341Z,1.00
2023-05-09T19:20:57.844Z,1.10
2023-05-09T19:23:26.562Z,1.25
2023-05-09T19:25:53.981Z,1.08
2023-05-09T19:28:20.509Z,1.20
2023-05-09T19:30:46.909Z,1.05
2023-05-09T19:33:13.761Z,1.08
2023-05-09T19:35:41.394Z,7.07
2023-05-09T19:38:08.783Z,2.30
2023-05-09T19:40:35.182Z,1.35
2023-05-09T19:43:01.593Z,1.00
2023-05-09T19:45:27.995Z,1.53
2023-05-09T19:47:54.862Z,0.77
2023-05-09T19:50:21.538Z,1.00
2023-05-09T19:52:47.912Z,0.77
2023-05-09T19:55:14.299Z,1.00
2023-05-09T19:57:40.681Z,1.20
2023-05-09T20:00:07.301Z,1.00
2023-05-09T20:02:33.837Z,0.80
2023-05-09T20:05:00.316Z,0.93
2023-05-09T20:07:26.723Z,1.05
2023-05-09T20:09:53.135Z,1.20
2023-05-09T20:12:19.545Z,1.10
2023-05-09T20:14:45.890Z,1.10
2023-05-09T20:17:12.301Z,1.25
2023-05-09T20:19:38.891Z,1.02
2023-05-09T20:22:05.345Z,0.82
2023-05-09T20:24:31.786Z,1.10
2023-05-09T20:26:58.155Z,0.90
2023-05-09T20:29:25.040Z,1.13
2023-05-09T20:31:51.608Z,1.50
2023-05-09T20:34:19.595Z,1.08
2023-05-09T20:36:49.185Z,0.90
2023-05-09T20:39:17.751Z,1.35
2023-05-09T20:41:45.206Z,1.00
2023-05-09T20:44:11.674Z,0.73
2023-05-09T20:46:38.069Z,0.73
2023-05-09T20:49:04.545Z,0.88
2023-05-09T20:51:31.598Z,0.90
2023-05-09T20:53:58.449Z,0.80
2023-05-09T20:56:26.300Z,1.42
2023-05-09T20:58:52.645Z,1.03
2023-05-09T21:01:19.161Z,1.00
2023-05-09T21:03:45.694Z,0.88
2023-05-09T21:06:12.082Z,1.30
2023-05-09T21:08:40.460Z,0.82
2023-05-09T21:11:06.830Z,0.87
2023-05-09T21:13:33.154Z,1.08
2023-05-09T21:16:00.680Z,0.90
2023-05-09T21:18:27.507Z,0.85
2023-05-09T21:20:53.897Z,0.73
2023-05-09T21:23:20.858Z,1.20
2023-05-09T21:25:47.194Z,1.20
2023-05-09T21:28:15.428Z,0.82
2023-05-09T21:30:42.405Z,0.90
2023-05-09T21:33:08.856Z,0.77
2023-05-09T21:35:35.258Z,1.13
2023-05-09T21:38:01.651Z,0.70
2023-05-09T21:40:27.992Z,1.00
2023-05-09T21:42:54.331Z,0.80
2023-05-09T21:45:20.826Z,0.68
2023-05-09T21:47:47.373Z,0.70
2023-05-09T21:50:14.239Z,0.98
2023-05-09T21:52:40.869Z,1.13
2023-05-09T21:55:07.525Z,0.68
2023-05-09T21:57:34.003Z,0.50
2023-05-09T22:00:01.553Z,0.73
2023-05-09T22:02:29.227Z,1.40
2023-05-09T22:04:55.979Z,0.80
2023-05-09T22:07:22.519Z,1.00
2023-05-09T22:09:48.877Z,0.40
2023-05-09T22:12:15.192Z,0.63
2023-05-09T22:14:52.513Z,0.40
2023-05-09T22:17:22.194Z,2.10
2023-05-09T22:19:48.593Z,1.42
2023-05-09T22:22:14.983Z,0.40
2023-05-09T22:24:42.331Z,1.23
2023-05-09T22:27:09.029Z,1.27
2023-05-09T22:29:35.510Z,0.40
2023-05-09T22:32:02.436Z,0.30
2023-05-09T22:34:28.924Z,0.47
2023-05-09T22:36:55.347Z,0.40
2023-05-09T22:39:21.936Z,0.45
2023-05-09T22:41:48.283Z,0.40
2023-05-09T22:44:14.610Z,0.45
2023-05-09T22:46:41.093Z,0.50
2023-05-09T22:49:07.499Z,0.40
2023-05-09T22:51:33.951Z,0.40
2023-05-09T22:54:00.264Z,0.30
2023-05-09T22:56:27.300Z,0.40
2023-05-09T22:58:53.639Z,0.38
2023-05-09T23:01:20.140Z,0.80
2023-05-09T23:03:46.797Z,0.30
2023-05-09T23:06:13.184Z,0.30
2023-05-09T23:08:39.535Z,0.32
2023-05-09T23:11:06.037Z,0.57
2023-05-09T23:13:32.488Z,0.30
2023-05-09T23:15:58.866Z,0.30
2023-05-09T23:18:25.779Z,0.40
2023-05-09T23:20:52.206Z,0.40
2023-05-09T23:23:18.543Z,0.40
2023-05-09T23:25:45.125Z,0.30
2023-05-09T23:28:11.452Z,0.40
2023-05-09T23:30:37.863Z,0.30
2023-05-09T23:33:04.321Z,0.30
2023-05-09T23:35:30.681Z,0.40
2023-05-09T23:37:57.084Z,0.35
2023-05-09T23:40:23.466Z,0.32
2023-05-09T23:42:49.871Z,0.40
2023-05-09T23:45:16.241Z,0.30
2023-05-09T23:47:42.800Z,0.30
2023-05-09T23:50:09.249Z,0.30
2023-05-09T23:52:35.935Z,0.35
2023-05-09T23:55:02.372Z,0.20
2023-05-09T23:57:28.767Z,0.22
2023-05-09T23:59:55.221Z,0.30
